.
WxDataArchive / Data Records for 2006-11-22
2006-11-21 November 2006 2006-11-23

Data Records for Wednesday, 22 November 2006

Time	Temp	Chill	HIndex	Humid	Dewpt	 Wind 	HiWind	WindDir	Rain 	Barom 
-----	----	-----	------	-----	-----	------	------	-------	-----	----- 
00:00	28.7	28.7	28.7	85	24.8	0	0	---	0.00	30.371 
00:05	28.4	28.4	28.4	86	24.8	0	0	---	0.00	30.371 
00:10	28.2	28.2	28.2	86	24.6	0	0	---	0.00	30.371 
00:15	27.9	27.9	27.9	86	24.3	0	0	---	0.00	30.368 
00:20	27.8	27.8	27.8	86	24.2	0	0	---	0.00	30.368 
00:25	27.5	27.5	27.5	86	23.9	0	0	---	0.00	30.368 
00:30	27.2	27.2	27.2	86	23.6	0	0	---	0.00	30.363 
00:35	27.2	27.2	27.2	87	23.9	0	0	---	0.00	30.363 
00:40	27.0	27.0	27.0	88	23.9	0	0	---	0.00	30.363 
00:45	27.0	27.0	27.0	88	23.9	0	0	---	0.00	30.358 
00:50	26.9	26.9	26.9	89	24.1	0	0	---	0.00	30.358 
00:55	26.7	26.7	26.7	89	23.9	0	0	---	0.00	30.358 
01:00	26.7	26.7	26.7	89	23.9	0	0	---	0.00	30.358 
01:05	26.6	26.6	26.6	89	23.8	0	0	---	0.00	30.358 
01:10	26.4	26.4	26.4	89	23.6	0	0	---	0.00	30.358 
01:15	26.4	26.4	26.4	89	23.6	0	0	---	0.00	30.356 
01:20	26.3	26.3	26.3	89	23.5	0	0	---	0.00	30.356 
01:25	26.1	26.1	26.1	89	23.3	0	0	---	0.00	30.356 
01:30	26.0	26.0	26.0	89	23.2	0	0	---	0.00	30.354 
01:35	25.8	25.8	25.8	89	23.0	0	0	---	0.00	30.354 
01:40	25.7	25.7	25.7	89	22.9	0	0	---	0.00	30.354 
01:45	25.6	25.6	25.6	89	22.8	0	0	---	0.00	30.361 
01:50	25.6	25.6	25.6	89	22.8	0	0	---	0.00	30.361 
01:55	25.4	25.4	25.4	89	22.6	0	0	---	0.00	30.361 
02:00	25.4	25.4	25.4	89	22.6	0	0	---	0.00	30.354 
02:05	25.3	25.3	25.3	89	22.5	0	0	---	0.00	30.354 
02:10	25.1	25.1	25.1	90	22.6	0	0	---	0.00	30.354 
02:15	25.1	25.1	25.1	90	22.6	0	0	---	0.00	30.359 
02:20	25.1	25.1	25.1	90	22.6	0	0	---	0.00	30.359 
02:25	25.0	25.0	25.0	90	22.5	0	0	---	0.00	30.359 
02:30	25.0	25.0	25.0	90	22.5	0	0	---	0.00	30.355 
02:35	24.8	24.8	24.8	90	22.3	0	0	---	0.00	30.355 
02:40	24.8	24.8	24.8	90	22.3	0	0	---	0.00	30.355 
02:45	24.7	24.7	24.7	90	22.2	0	0	---	0.00	30.356 
02:50	24.5	24.5	24.5	90	22.0	0	0	---	0.00	30.356 
02:55	24.5	24.5	24.5	90	22.0	0	0	---	0.00	30.356 
03:00	24.4	24.4	24.4	90	21.9	0	0	---	0.00	30.359 
03:05	24.2	24.2	24.2	90	21.7	0	0	---	0.00	30.359 
03:10	24.1	24.1	24.1	90	21.6	0	0	---	0.00	30.359 
03:15	24.1	24.1	24.1	90	21.6	0	0	---	0.00	30.360 
03:20	23.9	23.9	23.9	90	21.4	0	0	---	0.00	30.360 
03:25	23.8	23.8	23.8	91	21.6	0	0	---	0.00	30.360 
03:30	23.8	23.8	23.8	91	21.6	0	0	---	0.00	30.362 
03:35	23.8	23.8	23.8	91	21.6	0	0	---	0.00	30.362 
03:40	23.8	23.8	23.8	91	21.6	0	0	---	0.00	30.362 
03:45	23.8	23.8	23.8	91	21.6	0	0	---	0.00	30.363 
03:50	23.6	23.6	23.6	91	21.4	0	0	---	0.00	30.363 
03:55	23.5	23.5	23.5	91	21.3	0	0	---	0.00	30.363 
04:00	23.3	23.3	23.3	91	21.1	0	0	---	0.00	30.372 
04:05	23.5	23.5	23.5	91	21.3	0	0	---	0.00	30.372 
04:10	23.3	23.3	23.3	91	21.1	0	0	---	0.00	30.372 
04:15	23.3	23.3	23.3	91	21.1	0	0	---	0.00	30.376 
04:20	23.5	23.5	23.5	91	21.3	0	0	---	0.00	30.376 
04:25	23.3	23.3	23.3	91	21.1	0	0	---	0.00	30.376 
04:30	23.3	23.3	23.3	91	21.1	0	0	---	0.00	30.376 
04:35	23.2	23.2	23.2	91	21.0	0	0	---	0.00	30.376 
04:40	23.2	23.2	23.2	91	21.0	0	0	---	0.00	30.376 
04:45	23.0	23.0	23.0	91	20.8	0	0	---	0.00	30.377 
04:50	22.9	22.9	22.9	91	20.7	0	0	---	0.00	30.377 
04:55	22.9	22.9	22.9	91	20.7	0	0	---	0.00	30.377 
05:00	22.9	22.9	22.9	91	20.7	0	0	---	0.00	30.377 
05:05	22.9	22.9	22.9	91	20.7	0	0	---	0.00	30.377 
05:10	22.9	22.9	22.9	92	20.9	0	0	---	0.00	30.377 
05:15	23.0	23.0	23.0	92	21.0	0	0	---	0.00	30.379 
05:20	23.0	23.0	23.0	92	21.0	0	0	---	0.00	30.379 
05:25	23.0	23.0	23.0	92	21.0	0	0	---	0.00	30.379 
05:30	23.2	23.2	23.2	92	21.2	0	0	---	0.00	30.379 
05:35	23.2	23.2	23.2	92	21.2	0	0	---	0.00	30.379 
05:40	23.2	23.2	23.2	92	21.2	0	0	---	0.00	30.379 
05:45	23.2	23.2	23.2	92	21.2	0	1	112	0.00	30.385 
05:50	23.0	23.0	23.0	92	21.0	0	0	---	0.00	30.385 
05:55	22.9	22.9	22.9	91	20.7	0	0	---	0.00	30.385 
06:00	22.9	22.9	22.9	91	20.7	0	0	---	0.00	30.383 
06:05	22.7	22.7	22.7	91	20.5	0	0	---	0.00	30.383 
06:10	22.9	22.9	22.9	92	20.9	0	1	112	0.00	30.383 
06:15	22.9	22.9	22.9	91	20.7	0	0	---	0.00	30.385 
06:20	22.7	22.7	22.7	91	20.5	0	0	---	0.00	30.385 
06:25	22.7	22.7	22.7	91	20.5	0	0	---	0.00	30.385 
06:30	22.5	22.5	22.5	91	20.3	0	0	---	0.00	30.387 
06:35	22.5	22.5	22.5	91	20.3	0	0	---	0.00	30.387 
06:40	22.5	22.5	22.5	91	20.3	0	0	---	0.00	30.387 
06:45	22.5	22.5	22.5	91	20.3	0	0	---	0.00	30.390 
06:50	22.5	22.5	22.5	91	20.3	0	0	---	0.00	30.390 
06:55	22.5	22.5	22.5	91	20.3	0	0	---	0.00	30.390 
07:00	22.5	22.5	22.5	91	20.3	0	0	---	0.00	30.395 
07:05	22.7	22.7	22.7	92	20.7	0	0	---	0.00	30.395 
07:10	22.7	22.7	22.7	92	20.7	0	0	---	0.00	30.395 
07:15	22.7	22.7	22.7	92	20.7	0	0	---	0.00	30.396 
07:20	22.5	22.5	22.5	91	20.3	0	0	---	0.00	30.396 
07:25	22.5	22.5	22.5	91	20.3	0	0	---	0.00	30.396 
07:30	22.4	22.4	22.4	91	20.2	0	0	---	0.00	30.397 
07:35	22.4	22.4	22.4	91	20.2	0	0	---	0.00	30.397 
07:40	22.2	22.2	22.2	91	20.0	0	0	---	0.00	30.397 
07:45	22.2	22.2	22.2	91	20.0	0	0	---	0.00	30.388 
07:50	22.4	22.4	22.4	92	20.4	0	0	---	0.00	30.388 
07:55	22.4	22.4	22.4	92	20.4	0	0	---	0.00	30.388 
08:00	22.5	22.5	22.5	92	20.5	0	0	---	0.00	30.385 
08:05	22.7	22.7	22.7	92	20.7	0	0	---	0.00	30.385 
08:10	22.9	22.9	22.9	92	20.9	0	0	---	0.00	30.385 
08:15	23.5	23.5	23.5	93	21.8	0	0	---	0.00	30.384 
08:20	23.9	23.9	23.9	93	22.2	0	0	---	0.00	30.384 
08:25	24.2	24.2	24.2	93	22.5	0	0	---	0.00	30.384 
08:30	24.8	24.8	24.8	93	23.1	0	0	---	0.00	30.383 
08:35	25.3	25.3	25.3	93	23.6	0	0	---	0.00	30.383 
08:40	25.4	25.4	25.4	93	23.7	0	0	---	0.00	30.383 
08:45	25.8	25.8	25.8	93	24.1	0	1	112	0.00	30.380 
08:50	27.0	27.0	27.0	94	25.5	1	2	112	0.00	30.380 
08:55	28.1	28.1	28.1	93	26.3	1	2	112	0.00	30.380 
09:00	28.7	28.7	28.7	92	26.7	1	3	90	0.00	30.376 
09:05	29.3	29.3	29.3	90	26.7	0	1	90	0.00	30.376 
09:10	30.0	30.0	30.0	90	27.4	0	1	90	0.00	30.376 
09:15	31.0	31.0	31.0	88	27.9	0	1	90	0.00	30.372 
09:20	31.9	31.9	31.9	85	27.9	0	2	90	0.00	30.372 
09:25	32.5	32.5	32.5	83	27.9	0	2	90	0.00	30.372 
09:30	32.9	32.9	32.9	81	27.7	1	3	90	0.00	30.375 
09:35	32.9	32.9	32.9	81	27.7	1	3	90	0.00	30.375 
09:40	33.1	33.1	33.1	81	27.9	1	3	90	0.00	30.375 
09:45	33.2	33.2	33.2	81	28.0	1	3	90	0.00	30.376 
09:50	33.5	33.5	33.5	80	28.0	2	4	90	0.00	30.376 
09:55	33.7	33.7	33.7	79	27.9	2	4	90	0.00	30.376 
10:00	33.8	33.8	33.8	79	28.0	2	4	112	0.00	30.375 
10:05	34.1	34.1	34.1	80	28.6	2	4	90	0.00	30.375 
10:10	34.3	34.3	34.3	80	28.8	2	3	90	0.00	30.375 
10:15	34.9	34.9	34.9	79	29.1	2	4	90	0.00	30.375 
10:20	35.2	35.2	35.2	79	29.4	2	5	112	0.00	30.375 
10:25	35.6	35.6	35.6	77	29.1	2	5	90	0.00	30.375 
10:30	36.0	36.0	36.0	77	29.5	1	3	90	0.00	30.374 
10:35	36.6	36.6	36.6	77	30.1	1	3	90	0.00	30.374 
10:40	36.9	36.9	36.9	75	29.7	1	3	90	0.00	30.374 
10:45	37.3	37.3	37.3	75	30.1	1	3	90	0.00	30.376 
10:50	37.8	37.8	37.8	75	30.6	1	4	68	0.00	30.376 
10:55	38.2	38.2	38.2	73	30.3	2	4	90	0.00	30.376 
11:00	38.5	38.5	38.5	73	30.6	2	5	90	0.00	30.374 
11:05	38.9	38.9	38.9	70	30.0	2	5	90	0.00	30.374 
11:10	39.2	39.2	39.2	71	30.6	1	3	90	0.00	30.374 
11:15	39.6	39.6	39.6	69	30.3	1	3	90	0.00	30.372 
11:20	39.9	39.9	39.9	68	30.2	2	4	90	0.00	30.372 
11:25	40.5	40.5	40.5	70	31.5	1	3	112	0.00	30.372 
11:30	40.8	40.8	40.8	68	31.1	1	3	90	0.00	30.369 
11:35	41.1	41.1	41.1	65	30.2	1	3	112	0.00	30.369 
11:40	41.2	41.2	41.2	66	30.7	2	4	112	0.00	30.369 
11:45	41.5	41.5	41.5	65	30.6	2	4	112	0.00	30.365 
11:50	41.6	41.6	41.6	65	30.7	3	5	112	0.00	30.365 
11:55	41.9	41.9	41.9	66	31.4	2	4	90	0.00	30.365 
12:00	42.3	42.3	42.3	64	31.0	2	6	112	0.00	30.354 
12:05	42.8	42.8	42.8	65	31.9	2	4	112	0.00	30.354 
12:10	42.9	42.9	42.9	63	31.2	3	5	90	0.00	30.354 
12:15	42.8	42.8	42.8	62	30.7	2	5	90	0.00	30.349 
12:20	42.9	42.9	42.9	64	31.6	1	3	90	0.00	30.349 
12:25	43.2	43.2	43.2	64	31.9	2	5	112	0.00	30.349 
12:30	43.5	43.5	43.5	62	31.4	1	5	112	0.00	30.340 
12:35	43.9	43.9	43.9	59	30.5	3	5	90	0.00	30.340 
12:40	44.1	44.1	44.1	59	30.7	2	4	112	0.00	30.340 
12:45	44.3	44.3	44.3	60	31.3	3	6	112	0.00	30.339 
12:50	44.5	44.5	44.5	62	32.3	2	4	135	0.00	30.339 
12:55	44.8	44.8	44.8	60	31.8	3	6	112	0.00	30.339 
13:00	45.1	45.1	45.1	57	30.8	2	6	112	0.00	30.336 
13:05	45.4	45.4	45.4	54	29.7	3	6	90	0.00	30.336 
13:10	45.4	45.4	45.4	54	29.7	3	7	112	0.00	30.336 
13:15	45.5	45.5	45.5	53	29.4	3	6	90	0.00	30.338 
13:20	46.0	46.0	46.0	54	30.3	3	9	90	0.00	30.338 
13:25	46.2	46.2	46.2	51	29.1	2	6	112	0.00	30.338 
13:30	46.4	44.7	46.4	51	29.3	4	9	112	0.00	30.336 
13:35	46.4	46.4	46.4	53	30.2	3	6	112	0.00	30.336 
13:40	46.5	46.5	46.5	50	28.9	2	6	112	0.00	30.336 
13:45	46.7	46.7	46.7	49	28.6	3	6	112	0.00	30.324 
13:50	46.8	46.8	46.8	48	28.2	3	6	112	0.00	30.324 
13:55	47.0	47.0	47.0	46	27.3	2	5	135	0.00	30.324 
14:00	47.3	47.3	47.3	46	27.6	3	7	90	0.00	30.322 
14:05	47.3	47.3	47.3	46	27.6	3	7	112	0.00	30.322 
14:10	47.4	47.4	47.4	45	27.1	3	6	112	0.00	30.322 
14:15	47.6	46.1	47.6	43	26.2	4	9	112	0.00	30.320 
14:20	47.7	46.2	47.7	45	27.4	4	7	112	0.00	30.320 
14:25	47.7	47.7	47.7	45	27.4	3	6	90	0.00	30.320 
14:30	47.7	47.7	47.7	46	27.9	3	6	112	0.00	30.311 
14:35	47.9	46.4	47.9	46	28.1	4	6	90	0.00	30.311 
14:40	47.9	47.9	47.9	46	28.1	3	6	90	0.00	30.311 
14:45	47.9	47.9	47.9	47	28.7	1	3	112	0.00	30.309 
14:50	48.0	48.0	48.0	46	28.2	2	5	90	0.00	30.309 
14:55	48.0	48.0	48.0	44	27.1	1	3	135	0.00	30.309 
15:00	48.0	48.0	48.0	44	27.1	2	4	90	0.00	30.308 
15:05	48.2	48.2	48.2	43	26.8	2	6	112	0.00	30.308 
15:10	48.3	48.3	48.3	44	27.4	1	4	112	0.00	30.308 
15:15	48.3	48.3	48.3	42	26.3	2	5	90	0.00	30.308 
15:20	48.5	48.5	48.5	42	26.5	3	6	112	0.00	30.308 
15:25	48.5	48.5	48.5	42	26.5	2	6	112	0.00	30.308 
15:30	48.5	48.5	48.5	42	26.5	2	3	90	0.00	30.303 
15:35	48.5	48.5	48.5	42	26.5	2	5	112	0.00	30.303 
15:40	48.5	48.5	48.5	42	26.5	2	4	90	0.00	30.303 
15:45	48.3	48.3	48.3	41	25.7	2	4	112	0.00	30.299 
15:50	48.3	48.3	48.3	40	25.1	2	5	90	0.00	30.299 
15:55	48.3	48.3	48.3	42	26.3	2	5	90	0.00	30.299 
16:00	48.3	48.3	48.3	41	25.7	1	3	90	0.00	30.298 
16:05	48.3	48.3	48.3	43	26.9	2	4	90	0.00	30.298 
16:10	48.2	48.2	48.2	42	26.2	2	4	112	0.00	30.298 
16:15	48.0	48.0	48.0	42	26.0	1	3	112	0.00	30.298 
16:20	47.9	47.9	47.9	42	25.9	1	4	112	0.00	30.298 
16:25	47.7	47.7	47.7	44	26.9	1	2	112	0.00	30.298 
16:30	47.6	47.6	47.6	43	26.2	1	3	90	0.00	30.298 
16:35	47.6	47.6	47.6	44	26.8	1	2	90	0.00	30.298 
16:40	47.3	47.3	47.3	46	27.6	0	2	90	0.00	30.298 
16:45	47.0	47.0	47.0	47	27.8	0	2	90	0.00	30.299 
16:50	46.7	46.7	46.7	48	28.1	0	2	90	0.00	30.299 
16:55	46.2	46.2	46.2	48	27.6	0	1	90	0.00	30.299 
17:00	46.0	46.0	46.0	50	28.4	0	1	90	0.00	30.296 
17:05	45.4	45.4	45.4	50	27.9	0	0	---	0.00	30.296 
17:10	44.8	44.8	44.8	51	27.8	0	0	---	0.00	30.296 
17:15	44.2	44.2	44.2	53	28.2	0	0	---	0.00	30.299 
17:20	43.5	43.5	43.5	55	28.4	0	0	---	0.00	30.299 
17:25	42.8	42.8	42.8	55	27.8	0	0	---	0.00	30.299 
17:30	42.2	42.2	42.2	56	27.6	0	0	---	0.00	30.312 
17:35	41.6	41.6	41.6	57	27.5	0	0	---	0.00	30.312 
17:40	41.1	41.1	41.1	58	27.5	0	0	---	0.00	30.312 
17:45	40.5	40.5	40.5	59	27.3	0	0	---	0.00	30.313 
17:50	40.1	40.1	40.1	60	27.3	0	0	---	0.00	30.313 
17:55	39.5	39.5	39.5	62	27.6	0	0	---	0.00	30.313 
18:00	39.1	39.1	39.1	64	28.0	0	0	---	0.00	30.316 
18:05	38.6	38.6	38.6	64	27.5	0	0	---	0.00	30.316 
18:10	38.3	38.3	38.3	66	28.0	0	0	---	0.00	30.316 
18:15	38.0	38.0	38.0	66	27.7	0	0	---	0.00	30.321 
18:20	37.6	37.6	37.6	66	27.3	0	0	---	0.00	30.321 
18:25	37.3	37.3	37.3	67	27.4	0	0	---	0.00	30.321 
18:30	37.0	37.0	37.0	68	27.4	0	0	---	0.00	30.327 
18:35	36.6	36.6	36.6	69	27.4	0	0	---	0.00	30.327 
18:40	36.3	36.3	36.3	69	27.1	0	0	---	0.00	30.327 
18:45	36.0	36.0	36.0	70	27.2	0	0	---	0.00	30.325 
18:50	35.8	35.8	35.8	71	27.3	0	0	---	0.00	30.325 
18:55	35.6	35.6	35.6	72	27.5	0	0	---	0.00	30.325 
19:00	35.3	35.3	35.3	72	27.2	0	0	---	0.00	30.329 
19:05	35.0	35.0	35.0	73	27.2	0	0	---	0.00	30.329 
19:10	34.7	34.7	34.7	73	26.9	0	0	---	0.00	30.329 
19:15	34.4	34.4	34.4	74	27.0	0	0	---	0.00	30.329 
19:20	34.3	34.3	34.3	74	26.9	0	0	---	0.00	30.329 
19:25	33.8	33.8	33.8	74	26.4	0	0	---	0.00	30.329 
19:30	33.5	33.5	33.5	76	26.8	0	0	---	0.00	30.327 
19:35	33.2	33.2	33.2	76	26.5	0	0	---	0.00	30.327 
19:40	32.9	32.9	32.9	77	26.5	0	0	---	0.00	30.327 
19:45	32.7	32.7	32.7	78	26.6	0	0	---	0.00	30.322 
19:50	32.4	32.4	32.4	78	26.3	0	0	---	0.00	30.322 
19:55	32.1	32.1	32.1	78	26.0	0	0	---	0.00	30.322 
20:00	31.9	31.9	31.9	81	26.7	0	0	---	0.00	30.322 
20:05	31.8	31.8	31.8	81	26.6	0	0	---	0.00	30.322 
20:10	31.8	31.8	31.8	81	26.6	0	0	---	0.00	30.322 
20:15	31.6	31.6	31.6	81	26.5	0	0	---	0.00	30.314 
20:20	31.6	31.6	31.6	81	26.5	0	0	---	0.00	30.314 
20:25	31.5	31.5	31.5	81	26.4	0	0	---	0.00	30.314 
20:30	31.3	31.3	31.3	81	26.2	0	0	---	0.00	30.313 
20:35	31.2	31.2	31.2	81	26.1	0	0	---	0.00	30.313 
20:40	31.0	31.0	31.0	81	25.9	0	0	---	0.00	30.313 
20:45	30.9	30.9	30.9	81	25.8	0	0	---	0.00	30.308 
20:50	30.6	30.6	30.6	81	25.5	0	0	---	0.00	30.308 
20:55	30.4	30.4	30.4	81	25.3	0	0	---	0.00	30.308 
21:00	30.3	30.3	30.3	82	25.5	0	0	---	0.00	30.304 
21:05	30.3	30.3	30.3	82	25.5	0	0	---	0.00	30.304 
21:10	30.1	30.1	30.1	83	25.6	0	0	---	0.00	30.304 
21:15	30.1	30.1	30.1	83	25.6	0	0	---	0.00	30.295 
21:20	30.1	30.1	30.1	83	25.6	0	0	---	0.00	30.295 
21:25	30.0	30.0	30.0	83	25.5	0	0	---	0.00	30.295 
21:30	29.7	29.7	29.7	83	25.2	0	0	---	0.00	30.290 
21:35	29.5	29.5	29.5	83	25.0	0	0	---	0.00	30.290 
21:40	29.5	29.5	29.5	83	25.0	0	0	---	0.00	30.290 
21:45	29.5	29.5	29.5	83	25.0	0	0	---	0.00	30.287 
21:50	29.7	29.7	29.7	84	25.5	0	0	---	0.00	30.287 
21:55	29.8	29.8	29.8	84	25.6	0	1	90	0.00	30.287 
22:00	30.7	30.7	30.7	85	26.7	0	1	90	0.00	30.289 
22:05	31.6	31.6	31.6	84	27.3	0	1	90	0.00	30.289 
22:10	32.8	32.8	32.8	84	28.5	1	2	90	0.00	30.289 
22:15	34.3	34.3	34.3	81	29.1	1	3	90	0.00	30.276 
22:20	35.5	35.5	35.5	78	29.3	1	3	90	0.00	30.276 
22:25	35.9	35.9	35.9	78	29.7	1	2	90	0.00	30.276 
22:30	35.9	35.9	35.9	78	29.7	0	1	90	0.00	30.273 
22:35	35.8	35.8	35.8	80	30.2	0	2	90	0.00	30.273 
22:40	35.6	35.6	35.6	81	30.4	0	1	90	0.00	30.273 
22:45	35.5	35.5	35.5	81	30.3	0	2	90	0.00	30.274 
22:50	35.3	35.3	35.3	83	30.7	1	2	90	0.00	30.274 
22:55	35.3	35.3	35.3	83	30.7	0	2	90	0.00	30.274 
23:00	35.2	35.2	35.2	83	30.6	0	0	---	0.00	30.272 
23:05	34.9	34.9	34.9	83	30.3	0	0	---	0.00	30.272 
23:10	34.4	34.4	34.4	84	30.1	0	0	---	0.00	30.272 
23:15	34.0	34.0	34.0	84	29.7	0	0	---	0.00	30.270 
23:20	33.4	33.4	33.4	85	29.4	0	0	---	0.00	30.270 
23:25	32.8	32.8	32.8	85	28.8	0	0	---	0.00	30.270 
23:30	32.4	32.4	32.4	85	28.4	0	0	---	0.00	30.267 
23:35	31.9	31.9	31.9	86	28.2	0	0	---	0.00	30.267 
23:40	31.5	31.5	31.5	85	27.5	0	0	---	0.00	30.267 
23:45	31.0	31.0	31.0	86	27.3	0	0	---	0.00	30.274 
23:50	30.7	30.7	30.7	87	27.3	0	0	---	0.00	30.274 
23:55	30.6	30.6	30.6	88	27.5	0	0	---	0.00	30.274 

CoCoRaHS
IN-AL-39
A2 Web Hosting
Creative Commons License
GoDaddy
Look for:

loaded 2017-12-11 14:19:34 • last modified 2010-11-18 10:43:29
Privacy PolicyDisclaimer
• wx.awcolley.com is powered by PmWiki v.2002016 •
• all content (unless otherwise noted) © 2017 A W Colley